sensor_id;sensor_type;location;lat;lon;timestamp;pressure;altitude;pressure_sealevel;temperature;humidity
34237;BME280;20501;45.956;13.632;2023-05-25T00:00:14;100621.81;;;17.38;76.47
34237;BME280;20501;45.956;13.632;2023-05-25T00:02:40;100623.03;;;17.51;75.42
34237;BME280;20501;45.956;13.632;2023-05-25T00:05:11;100618.69;;;17.41;75.61
34237;BME280;20501;45.956;13.632;2023-05-25T00:07:37;100628.53;;;17.27;76.03
34237;BME280;20501;45.956;13.632;2023-05-25T00:10:07;100625.41;;;17.15;76.75
34237;BME280;20501;45.956;13.632;2023-05-25T00:12:33;100627.97;;;17.32;75.71
34237;BME280;20501;45.956;13.632;2023-05-25T00:14:58;100627.44;;;17.37;76.01
34237;BME280;20501;45.956;13.632;2023-05-25T00:17:24;100623.97;;;17.20;76.71
34237;BME280;20501;45.956;13.632;2023-05-25T00:19:50;100626.59;;;17.36;75.65
34237;BME280;20501;45.956;13.632;2023-05-25T00:22:15;100636.44;;;17.22;76.41
34237;BME280;20501;45.956;13.632;2023-05-25T00:24:41;100632.34;;;17.41;74.76
34237;BME280;20501;45.956;13.632;2023-05-25T00:27:07;100629.94;;;17.23;76.27
34237;BME280;20501;45.956;13.632;2023-05-25T00:29:33;100629.16;;;17.14;76.75
34237;BME280;20501;45.956;13.632;2023-05-25T00:31:59;100636.19;;;16.46;80.48
34237;BME280;20501;45.956;13.632;2023-05-25T00:34:25;100627.31;;;16.83;78.27
34237;BME280;20501;45.956;13.632;2023-05-25T00:36:50;100632.50;;;17.25;75.71
34237;BME280;20501;45.956;13.632;2023-05-25T00:39:17;100638.44;;;16.74;79.41
34237;BME280;20501;45.956;13.632;2023-05-25T00:41:44;100639.59;;;17.11;76.75
34237;BME280;20501;45.956;13.632;2023-05-25T00:44:11;100632.41;;;17.33;75.87
34237;BME280;20501;45.956;13.632;2023-05-25T00:46:43;100639.00;;;17.00;78.58
34237;BME280;20501;45.956;13.632;2023-05-25T00:49:12;100642.56;;;17.01;78.06
34237;BME280;20501;45.956;13.632;2023-05-25T00:51:38;100638.59;;;17.04;76.97
34237;BME280;20501;45.956;13.632;2023-05-25T00:54:04;100645.03;;;17.34;75.69
34237;BME280;20501;45.956;13.632;2023-05-25T00:56:31;100641.19;;;17.43;75.03
34237;BME280;20501;45.956;13.632;2023-05-25T00:59:02;100639.09;;;17.07;77.41
34237;BME280;20501;45.956;13.632;2023-05-25T01:01:30;100643.16;;;17.11;77.93
34237;BME280;20501;45.956;13.632;2023-05-25T01:03:58;100640.00;;;16.68;79.53
34237;BME280;20501;45.956;13.632;2023-05-25T01:06:25;100643.00;;;16.81;80.51
34237;BME280;20501;45.956;13.632;2023-05-25T01:09:00;100638.31;;;17.22;76.53
34237;BME280;20501;45.956;13.632;2023-05-25T01:11:34;100642.22;;;16.64;80.41
34237;BME280;20501;45.956;13.632;2023-05-25T01:14:01;100652.38;;;17.10;76.83
34237;BME280;20501;45.956;13.632;2023-05-25T01:16:27;100642.19;;;16.73;79.17
34237;BME280;20501;45.956;13.632;2023-05-25T01:18:54;100646.78;;;17.04;78.25
34237;BME280;20501;45.956;13.632;2023-05-25T01:21:41;100653.81;;;16.98;78.58
34237;BME280;20501;45.956;13.632;2023-05-25T01:24:27;100648.31;;;17.29;75.81
34237;BME280;20501;45.956;13.632;2023-05-25T01:29:43;100640.78;;;16.45;81.48
34237;BME280;20501;45.956;13.632;2023-05-25T01:32:12;100642.81;;;16.83;78.74
34237;BME280;20501;45.956;13.632;2023-05-25T01:34:39;100648.09;;;16.84;78.90
34237;BME280;20501;45.956;13.632;2023-05-25T01:37:05;100645.41;;;16.76;79.03
34237;BME280;20501;45.956;13.632;2023-05-25T01:39:31;100644.81;;;16.97;77.56
34237;BME280;20501;45.956;13.632;2023-05-25T01:41:56;100639.69;;;17.17;76.83
34237;BME280;20501;45.956;13.632;2023-05-25T01:44:22;100642.09;;;16.89;77.57
34237;BME280;20501;45.956;13.632;2023-05-25T01:46:52;100648.00;;;17.01;76.97
34237;BME280;20501;45.956;13.632;2023-05-25T01:49:31;100647.38;;;17.22;76.41
34237;BME280;20501;45.956;13.632;2023-05-25T01:54:44;100653.34;;;16.54;79.22
34237;BME280;20501;45.956;13.632;2023-05-25T01:57:13;100659.97;;;16.60;79.47
34237;BME280;20501;45.956;13.632;2023-05-25T01:59:42;100655.09;;;15.99;81.29
34237;BME280;20501;45.956;13.632;2023-05-25T02:02:08;100665.78;;;16.09;81.85
34237;BME280;20501;45.956;13.632;2023-05-25T02:04:34;100667.59;;;16.33;81.11
34237;BME280;20501;45.956;13.632;2023-05-25T02:07:02;100667.00;;;15.98;80.96
34237;BME280;20501;45.956;13.632;2023-05-25T02:09:28;100675.53;;;15.70;83.81
34237;BME280;20501;45.956;13.632;2023-05-25T02:11:53;100677.16;;;16.21;81.68
34237;BME280;20501;45.956;13.632;2023-05-25T02:14:18;100665.75;;;16.65;78.89
34237;BME280;20501;45.956;13.632;2023-05-25T02:16:44;100668.13;;;16.20;80.87
34237;BME280;20501;45.956;13.632;2023-05-25T02:19:12;100681.22;;;16.33;80.85
34237;BME280;20501;45.956;13.632;2023-05-25T02:21:40;100677.94;;;16.46;80.48
34237;BME280;20501;45.956;13.632;2023-05-25T02:24:06;100676.69;;;16.97;77.24
34237;BME280;20501;45.956;13.632;2023-05-25T02:26:34;100667.41;;;16.75;78.75
34237;BME280;20501;45.956;13.632;2023-05-25T02:28:59;100678.31;;;16.75;79.43
34237;BME280;20501;45.956;13.632;2023-05-25T02:31:26;100677.91;;;16.94;78.05
34237;BME280;20501;45.956;13.632;2023-05-25T02:33:52;100684.44;;;17.08;76.63
34237;BME280;20501;45.956;13.632;2023-05-25T02:36:17;100688.44;;;16.58;78.46
34237;BME280;20501;45.956;13.632;2023-05-25T02:38:43;100688.41;;;16.66;78.57
34237;BME280;20501;45.956;13.632;2023-05-25T02:41:08;100685.38;;;16.61;79.30
34237;BME280;20501;45.956;13.632;2023-05-25T02:43:33;100699.41;;;16.89;77.28
34237;BME280;20501;45.956;13.632;2023-05-25T02:45:59;100680.75;;;17.01;77.29
34237;BME280;20501;45.956;13.632;2023-05-25T02:48:25;100691.31;;;16.16;81.63
34237;BME280;20501;45.956;13.632;2023-05-25T02:50:50;100686.69;;;16.73;78.01
34237;BME280;20501;45.956;13.632;2023-05-25T02:53:15;100693.84;;;16.34;80.06
34237;BME280;20501;45.956;13.632;2023-05-25T02:55:41;100706.38;;;16.52;79.63
34237;BME280;20501;45.956;13.632;2023-05-25T02:58:07;100703.84;;;16.50;79.40
34237;BME280;20501;45.956;13.632;2023-05-25T03:00:33;100700.22;;;16.90;77.44
34237;BME280;20501;45.956;13.632;2023-05-25T03:02:58;100702.91;;;16.58;78.15
34237;BME280;20501;45.956;13.632;2023-05-25T03:05:24;100704.22;;;16.39;78.48
34237;BME280;20501;45.956;13.632;2023-05-25T03:07:50;100702.34;;;16.79;77.69
34237;BME280;20501;45.956;13.632;2023-05-25T03:10:15;100704.97;;;15.91;80.68
34237;BME280;20501;45.956;13.632;2023-05-25T03:12:41;100707.69;;;16.16;80.66
34237;BME280;20501;45.956;13.632;2023-05-25T03:15:07;100711.13;;;15.93;81.10
34237;BME280;20501;45.956;13.632;2023-05-25T03:17:33;100723.22;;;16.55;79.04
34237;BME280;20501;45.956;13.632;2023-05-25T03:19:58;100707.69;;;15.67;82.64
34237;BME280;20501;45.956;13.632;2023-05-25T03:22:24;100706.66;;;16.09;80.47
34237;BME280;20501;45.956;13.632;2023-05-25T03:24:49;100710.75;;;16.61;78.55
34237;BME280;20501;45.956;13.632;2023-05-25T03:27:15;100713.34;;;16.63;75.35
34237;BME280;20501;45.956;13.632;2023-05-25T03:29:40;100718.06;;;16.69;76.35
34237;BME280;20501;45.956;13.632;2023-05-25T03:32:06;100722.16;;;16.73;76.38
34237;BME280;20501;45.956;13.632;2023-05-25T03:34:32;100727.22;;;16.76;76.06
34237;BME280;20501;45.956;13.632;2023-05-25T03:36:59;100723.91;;;16.58;77.54
34237;BME280;20501;45.956;13.632;2023-05-25T03:39:24;100728.47;;;16.17;77.56
34237;BME280;20501;45.956;13.632;2023-05-25T03:41:50;100732.50;;;16.38;77.77
34237;BME280;20501;45.956;13.632;2023-05-25T03:44:15;100733.25;;;16.63;74.25
34237;BME280;20501;45.956;13.632;2023-05-25T03:46:41;100737.88;;;16.63;75.01
34237;BME280;20501;45.956;13.632;2023-05-25T03:49:06;100737.66;;;16.73;76.21
34237;BME280;20501;45.956;13.632;2023-05-25T03:51:33;100749.91;;;16.77;75.52
34237;BME280;20501;45.956;13.632;2023-05-25T03:53:58;100754.13;;;16.87;74.85
34237;BME280;20501;45.956;13.632;2023-05-25T03:56:23;100748.84;;;16.86;74.52
34237;BME280;20501;45.956;13.632;2023-05-25T03:58:50;100747.19;;;16.77;74.69
34237;BME280;20501;45.956;13.632;2023-05-25T04:01:16;100760.50;;;16.71;75.38
34237;BME280;20501;45.956;13.632;2023-05-25T04:03:42;100755.22;;;16.70;75.30
34237;BME280;20501;45.956;13.632;2023-05-25T04:06:07;100753.97;;;16.89;75.02
34237;BME280;20501;45.956;13.632;2023-05-25T04:08:33;100752.34;;;16.63;75.19
34237;BME280;20501;45.956;13.632;2023-05-25T04:10:59;100753.00;;;16.74;72.71
34237;BME280;20501;45.956;13.632;2023-05-25T04:13:24;100757.13;;;17.09;70.28
34237;BME280;20501;45.956;13.632;2023-05-25T04:15:50;100754.84;;;17.21;69.67
34237;BME280;20501;45.956;13.632;2023-05-25T04:18:15;100752.06;;;17.29;70.93
34237;BME280;20501;45.956;13.632;2023-05-25T04:20:41;100753.56;;;17.32;69.88
34237;BME280;20501;45.956;13.632;2023-05-25T04:23:06;100766.56;;;17.30;69.28
34237;BME280;20501;45.956;13.632;2023-05-25T04:25:32;100764.50;;;17.32;70.99
34237;BME280;20501;45.956;13.632;2023-05-25T04:27:57;100775.63;;;17.30;71.04
34237;BME280;20501;45.956;13.632;2023-05-25T04:30:23;100768.25;;;17.31;71.86
34237;BME280;20501;45.956;13.632;2023-05-25T04:32:48;100777.66;;;17.28;72.31
34237;BME280;20501;45.956;13.632;2023-05-25T04:35:14;100776.63;;;17.29;71.76
34237;BME280;20501;45.956;13.632;2023-05-25T04:37:40;100780.41;;;17.28;72.90
34237;BME280;20501;45.956;13.632;2023-05-25T04:40:06;100778.50;;;17.29;73.72
34237;BME280;20501;45.956;13.632;2023-05-25T04:42:36;100781.28;;;17.21;72.73
34237;BME280;20501;45.956;13.632;2023-05-25T04:45:04;100783.84;;;17.22;73.54
34237;BME280;20501;45.956;13.632;2023-05-25T04:47:29;100790.16;;;17.23;75.00
34237;BME280;20501;45.956;13.632;2023-05-25T04:49:55;100788.88;;;17.33;74.05
34237;BME280;20501;45.956;13.632;2023-05-25T04:52:20;100790.41;;;17.36;74.06
34237;BME280;20501;45.956;13.632;2023-05-25T04:54:46;100802.53;;;17.33;75.03
34237;BME280;20501;45.956;13.632;2023-05-25T04:57:11;100807.84;;;17.35;75.26
34237;BME280;20501;45.956;13.632;2023-05-25T04:59:37;100805.06;;;17.43;74.60
34237;BME280;20501;45.956;13.632;2023-05-25T05:02:02;100793.59;;;17.48;73.82
34237;BME280;20501;45.956;13.632;2023-05-25T05:04:28;100794.94;;;17.52;75.19
34237;BME280;20501;45.956;13.632;2023-05-25T05:06:53;100808.94;;;17.49;77.21
34237;BME280;20501;45.956;13.632;2023-05-25T05:09:19;100799.53;;;17.52;75.06
34237;BME280;20501;45.956;13.632;2023-05-25T05:11:44;100805.31;;;17.57;74.78
34237;BME280;20501;45.956;13.632;2023-05-25T05:14:10;100803.06;;;17.60;71.29
34237;BME280;20501;45.956;13.632;2023-05-25T05:16:35;100798.63;;;17.83;68.51
34237;BME280;20501;45.956;13.632;2023-05-25T05:19:02;100804.59;;;17.86;66.82
34237;BME280;20501;45.956;13.632;2023-05-25T05:21:28;100801.13;;;17.92;68.03
34237;BME280;20501;45.956;13.632;2023-05-25T05:23:53;100807.41;;;17.93;67.81
34237;BME280;20501;45.956;13.632;2023-05-25T05:26:20;100815.91;;;18.06;66.65
34237;BME280;20501;45.956;13.632;2023-05-25T05:28:45;100806.97;;;18.13;66.75
34237;BME280;20501;45.956;13.632;2023-05-25T05:31:11;100810.34;;;18.15;69.05
34237;BME280;20501;45.956;13.632;2023-05-25T05:33:36;100813.31;;;18.28;67.09
34237;BME280;20501;45.956;13.632;2023-05-25T05:36:02;100813.88;;;18.23;68.66
34237;BME280;20501;45.956;13.632;2023-05-25T05:38:28;100819.13;;;18.25;67.02
34237;BME280;20501;45.956;13.632;2023-05-25T05:40:54;100813.22;;;18.36;68.19
34237;BME280;20501;45.956;13.632;2023-05-25T05:43:20;100818.44;;;18.46;67.72
34237;BME280;20501;45.956;13.632;2023-05-25T05:45:45;100826.66;;;18.46;67.01
34237;BME280;20501;45.956;13.632;2023-05-25T05:48:10;100824.84;;;18.53;65.33
34237;BME280;20501;45.956;13.632;2023-05-25T05:50:37;100822.84;;;18.32;67.60
34237;BME280;20501;45.956;13.632;2023-05-25T05:53:03;100827.47;;;18.32;64.93
34237;BME280;20501;45.956;13.632;2023-05-25T05:55:28;100828.78;;;18.36;62.79
34237;BME280;20501;45.956;13.632;2023-05-25T05:57:54;100845.13;;;18.59;63.71
34237;BME280;20501;45.956;13.632;2023-05-25T06:00:20;100842.50;;;18.66;64.81
34237;BME280;20501;45.956;13.632;2023-05-25T06:02:45;100837.25;;;18.64;64.38
34237;BME280;20501;45.956;13.632;2023-05-25T06:05:11;100847.81;;;18.67;64.14
34237;BME280;20501;45.956;13.632;2023-05-25T06:07:37;100848.75;;;18.60;65.86
34237;BME280;20501;45.956;13.632;2023-05-25T06:10:03;100845.72;;;18.84;61.19
34237;BME280;20501;45.956;13.632;2023-05-25T06:12:29;100846.22;;;18.88;63.57
34237;BME280;20501;45.956;13.632;2023-05-25T06:14:54;100851.88;;;18.86;62.31
34237;BME280;20501;45.956;13.632;2023-05-25T06:17:20;100840.19;;;18.93;62.82
34237;BME280;20501;45.956;13.632;2023-05-25T06:19:46;100853.59;;;19.02;60.12
34237;BME280;20501;45.956;13.632;2023-05-25T06:22:12;100857.94;;;19.12;60.43
34237;BME280;20501;45.956;13.632;2023-05-25T06:24:37;100851.97;;;19.08;61.60
34237;BME280;20501;45.956;13.632;2023-05-25T06:27:03;100862.38;;;19.13;62.25
34237;BME280;20501;45.956;13.632;2023-05-25T06:29:29;100862.78;;;19.10;62.02
34237;BME280;20501;45.956;13.632;2023-05-25T06:31:54;100859.44;;;19.29;62.62
34237;BME280;20501;45.956;13.632;2023-05-25T06:34:20;100859.88;;;19.48;59.31
34237;BME280;20501;45.956;13.632;2023-05-25T06:36:45;100877.38;;;19.32;61.23
34237;BME280;20501;45.956;13.632;2023-05-25T06:39:12;100872.94;;;19.31;59.77
34237;BME280;20501;45.956;13.632;2023-05-25T06:41:38;100871.25;;;19.00;63.50
34237;BME280;20501;45.956;13.632;2023-05-25T06:44:05;100871.06;;;19.31;60.43
34237;BME280;20501;45.956;13.632;2023-05-25T06:46:31;100870.16;;;19.46;61.03
34237;BME280;20501;45.956;13.632;2023-05-25T06:48:58;100871.50;;;19.50;59.55
34237;BME280;20501;45.956;13.632;2023-05-25T06:51:24;100865.84;;;19.73;58.49
34237;BME280;20501;45.956;13.632;2023-05-25T06:53:51;100869.66;;;19.57;58.54
34237;BME280;20501;45.956;13.632;2023-05-25T06:56:17;100875.44;;;19.62;60.26
34237;BME280;20501;45.956;13.632;2023-05-25T06:58:42;100873.22;;;19.88;59.38
34237;BME280;20501;45.956;13.632;2023-05-25T07:01:07;100873.03;;;19.74;59.16
34237;BME280;20501;45.956;13.632;2023-05-25T07:03:33;100878.31;;;19.91;59.30
34237;BME280;20501;45.956;13.632;2023-05-25T07:05:58;100881.66;;;19.86;58.99
34237;BME280;20501;45.956;13.632;2023-05-25T07:08:24;100893.28;;;19.58;61.51
34237;BME280;20501;45.956;13.632;2023-05-25T07:10:49;100887.63;;;19.45;61.62
34237;BME280;20501;45.956;13.632;2023-05-25T07:13:15;100883.28;;;20.02;60.16
34237;BME280;20501;45.956;13.632;2023-05-25T07:15:40;100889.31;;;19.76;60.94
34237;BME280;20501;45.956;13.632;2023-05-25T07:18:06;100883.41;;;19.79;60.25
34237;BME280;20501;45.956;13.632;2023-05-25T07:20:31;100880.94;;;19.84;59.40
34237;BME280;20501;45.956;13.632;2023-05-25T07:22:58;100880.91;;;20.21;58.58
34237;BME280;20501;45.956;13.632;2023-05-25T07:25:23;100873.50;;;20.43;57.55
34237;BME280;20501;45.956;13.632;2023-05-25T07:27:49;100880.66;;;20.66;58.21
34237;BME280;20501;45.956;13.632;2023-05-25T07:30:14;100872.06;;;20.47;57.19
34237;BME280;20501;45.956;13.632;2023-05-25T07:32:40;100887.88;;;20.45;58.76
34237;BME280;20501;45.956;13.632;2023-05-25T07:35:06;100876.94;;;20.23;58.31
34237;BME280;20501;45.956;13.632;2023-05-25T07:37:32;100886.25;;;20.29;59.77
34237;BME280;20501;45.956;13.632;2023-05-25T07:39:57;100878.00;;;20.51;56.58
34237;BME280;20501;45.956;13.632;2023-05-25T07:42:23;100890.47;;;20.75;57.12
34237;BME280;20501;45.956;13.632;2023-05-25T07:44:48;100896.72;;;19.97;59.73
34237;BME280;20501;45.956;13.632;2023-05-25T07:47:13;100891.50;;;20.46;58.77
34237;BME280;20501;45.956;13.632;2023-05-25T07:49:39;100889.91;;;20.36;58.93
34237;BME280;20501;45.956;13.632;2023-05-25T07:52:04;100879.47;;;20.25;59.42
34237;BME280;20501;45.956;13.632;2023-05-25T07:54:31;100882.59;;;20.44;57.51
34237;BME280;20501;45.956;13.632;2023-05-25T07:56:56;100882.59;;;21.00;56.15
34237;BME280;20501;45.956;13.632;2023-05-25T07:59:21;100886.94;;;21.23;54.65
34237;BME280;20501;45.956;13.632;2023-05-25T08:01:47;100893.06;;;21.18;55.53
34237;BME280;20501;45.956;13.632;2023-05-25T08:04:12;100889.56;;;20.96;55.98
34237;BME280;20501;45.956;13.632;2023-05-25T08:06:38;100891.81;;;21.21;55.30
34237;BME280;20501;45.956;13.632;2023-05-25T08:09:04;100888.34;;;21.47;53.91
34237;BME280;20501;45.956;13.632;2023-05-25T08:11:30;100892.47;;;21.30;55.07
34237;BME280;20501;45.956;13.632;2023-05-25T08:13:55;100889.50;;;21.25;56.30
34237;BME280;20501;45.956;13.632;2023-05-25T08:16:21;100881.16;;;21.46;54.58
34237;BME280;20501;45.956;13.632;2023-05-25T08:18:47;100884.22;;;21.65;53.45
34237;BME280;20501;45.956;13.632;2023-05-25T08:21:12;100892.50;;;21.78;53.09
34237;BME280;20501;45.956;13.632;2023-05-25T08:23:39;100889.81;;;21.43;54.47
34237;BME280;20501;45.956;13.632;2023-05-25T08:26:07;100890.16;;;21.75;51.81
34237;BME280;20501;45.956;13.632;2023-05-25T08:28:32;100887.28;;;21.42;53.90
34237;BME280;20501;45.956;13.632;2023-05-25T08:30:58;100885.91;;;21.66;53.77
34237;BME280;20501;45.956;13.632;2023-05-25T08:33:23;100892.50;;;21.78;53.44
34237;BME280;20501;45.956;13.632;2023-05-25T08:35:48;100887.38;;;21.69;53.69
34237;BME280;20501;45.956;13.632;2023-05-25T08:38:16;100888.72;;;21.93;53.96
34237;BME280;20501;45.956;13.632;2023-05-25T08:40:42;100886.91;;;21.58;53.67
34237;BME280;20501;45.956;13.632;2023-05-25T08:43:09;100894.94;;;21.53;54.83
34237;BME280;20501;45.956;13.632;2023-05-25T08:45:34;100890.34;;;21.60;54.80
34237;BME280;20501;45.956;13.632;2023-05-25T08:48:00;100895.00;;;21.67;54.30
34237;BME280;20501;45.956;13.632;2023-05-25T08:50:29;100897.78;;;21.31;55.91
34237;BME280;20501;45.956;13.632;2023-05-25T08:52:56;100900.59;;;21.45;54.97
34237;BME280;20501;45.956;13.632;2023-05-25T08:55:26;100904.13;;;21.32;55.73
34237;BME280;20501;45.956;13.632;2023-05-25T08:58:09;100897.75;;;21.73;53.90
34237;BME280;20501;45.956;13.632;2023-05-25T09:00:43;100902.25;;;21.88;53.25
34237;BME280;20501;45.956;13.632;2023-05-25T09:03:16;100895.13;;;22.14;52.60
34237;BME280;20501;45.956;13.632;2023-05-25T09:05:45;100897.88;;;22.20;52.61
34237;BME280;20501;45.956;13.632;2023-05-25T09:08:10;100911.00;;;22.18;51.14
34237;BME280;20501;45.956;13.632;2023-05-25T09:10:37;100908.00;;;22.06;50.13
34237;BME280;20501;45.956;13.632;2023-05-25T09:13:03;100915.84;;;22.09;52.21
34237;BME280;20501;45.956;13.632;2023-05-25T09:15:30;100910.41;;;21.61;55.78
34237;BME280;20501;45.956;13.632;2023-05-25T09:17:55;100894.00;;;21.32;54.88
34237;BME280;20501;45.956;13.632;2023-05-25T09:20:22;100899.94;;;21.01;57.49
34237;BME280;20501;45.956;13.632;2023-05-25T09:22:48;100905.81;;;21.68;53.99
34237;BME280;20501;45.956;13.632;2023-05-25T09:25:17;100906.72;;;21.95;53.11
34237;BME280;20501;45.956;13.632;2023-05-25T09:27:45;100912.78;;;21.71;53.73
34237;BME280;20501;45.956;13.632;2023-05-25T09:30:11;100913.91;;;21.90;53.79
34237;BME280;20501;45.956;13.632;2023-05-25T09:32:38;100916.44;;;21.91;55.38
34237;BME280;20501;45.956;13.632;2023-05-25T09:35:12;100927.66;;;22.03;53.69
34237;BME280;20501;45.956;13.632;2023-05-25T09:37:38;100918.78;;;21.94;54.35
34237;BME280;20501;45.956;13.632;2023-05-25T09:40:05;100915.22;;;22.07;51.49
34237;BME280;20501;45.956;13.632;2023-05-25T09:42:32;100916.69;;;22.10;51.90
34237;BME280;20501;45.956;13.632;2023-05-25T09:45:00;100924.94;;;22.10;52.29
34237;BME280;20501;45.956;13.632;2023-05-25T09:47:27;100916.38;;;21.71;53.25
34237;BME280;20501;45.956;13.632;2023-05-25T09:49:53;100913.56;;;22.26;51.83
34237;BME280;20501;45.956;13.632;2023-05-25T09:52:19;100918.97;;;21.79;53.42
34237;BME280;20501;45.956;13.632;2023-05-25T09:54:47;100914.81;;;22.31;52.59
34237;BME280;20501;45.956;13.632;2023-05-25T09:57:14;100913.22;;;21.81;52.73
34237;BME280;20501;45.956;13.632;2023-05-25T09:59:41;100926.66;;;22.24;51.33
34237;BME280;20501;45.956;13.632;2023-05-25T10:02:06;100929.84;;;22.28;52.05
34237;BME280;20501;45.956;13.632;2023-05-25T10:04:32;100934.53;;;22.41;49.53
34237;BME280;20501;45.956;13.632;2023-05-25T10:06:59;100931.88;;;21.92;52.70
34237;BME280;20501;45.956;13.632;2023-05-25T10:09:28;100925.97;;;21.47;53.77
34237;BME280;20501;45.956;13.632;2023-05-25T10:11:55;100928.75;;;22.09;51.56
34237;BME280;20501;45.956;13.632;2023-05-25T10:14:25;100926.38;;;21.92;53.27
34237;BME280;20501;45.956;13.632;2023-05-25T10:16:52;100922.53;;;21.38;54.68
34237;BME280;20501;45.956;13.632;2023-05-25T10:19:20;100935.75;;;22.25;53.07
34237;BME280;20501;45.956;13.632;2023-05-25T10:22:02;100922.69;;;22.40;50.69
34237;BME280;20501;45.956;13.632;2023-05-25T10:26:58;100918.91;;;22.62;50.43
34237;BME280;20501;45.956;13.632;2023-05-25T10:29:24;100923.63;;;21.44;56.12
34237;BME280;20501;45.956;13.632;2023-05-25T10:31:52;100915.38;;;21.92;53.67
34237;BME280;20501;45.956;13.632;2023-05-25T10:34:19;100919.06;;;21.58;54.76
34237;BME280;20501;45.956;13.632;2023-05-25T10:36:46;100907.34;;;21.84;53.74
34237;BME280;20501;45.956;13.632;2023-05-25T10:39:13;100903.56;;;21.92;52.70
34237;BME280;20501;45.956;13.632;2023-05-25T10:41:40;100905.50;;;22.32;49.99
34237;BME280;20501;45.956;13.632;2023-05-25T10:44:06;100905.72;;;22.37;51.10
34237;BME280;20501;45.956;13.632;2023-05-25T10:46:32;100901.69;;;22.39;50.42
34237;BME280;20501;45.956;13.632;2023-05-25T10:48:58;100909.09;;;22.19;51.70
34237;BME280;20501;45.956;13.632;2023-05-25T10:51:39;100898.78;;;22.54;50.83
34237;BME280;20501;45.956;13.632;2023-05-25T10:54:05;100893.59;;;21.84;52.63
34237;BME280;20501;45.956;13.632;2023-05-25T10:56:30;100900.00;;;22.18;50.59
34237;BME280;20501;45.956;13.632;2023-05-25T10:58:56;100904.91;;;22.43;49.98
34237;BME280;20501;45.956;13.632;2023-05-25T11:01:22;100901.25;;;23.10;49.90
34237;BME280;20501;45.956;13.632;2023-05-25T11:09:29;100901.72;;;22.80;53.29
34237;BME280;20501;45.956;13.632;2023-05-25T11:14:30;100892.97;;;23.23;48.27
34237;BME280;20501;45.956;13.632;2023-05-25T11:17:07;100878.19;;;22.84;52.49
34237;BME280;20501;45.956;13.632;2023-05-25T11:22:20;100888.84;;;23.46;47.61
34237;BME280;20501;45.956;13.632;2023-05-25T11:24:51;100891.72;;;23.06;49.34
34237;BME280;20501;45.956;13.632;2023-05-25T11:27:24;100883.25;;;23.00;48.74
34237;BME280;20501;45.956;13.632;2023-05-25T11:29:52;100885.53;;;23.30;47.48
34237;BME280;20501;45.956;13.632;2023-05-25T11:32:18;100882.78;;;23.30;46.86
34237;BME280;20501;45.956;13.632;2023-05-25T11:34:43;100877.69;;;23.27;48.24
34237;BME280;20501;45.956;13.632;2023-05-25T11:37:15;100880.09;;;23.62;46.95
34237;BME280;20501;45.956;13.632;2023-05-25T11:39:41;100877.19;;;22.51;50.29
34237;BME280;20501;45.956;13.632;2023-05-25T11:42:09;100869.13;;;22.30;51.99
34237;BME280;20501;45.956;13.632;2023-05-25T11:44:37;100870.41;;;22.40;51.26
34237;BME280;20501;45.956;13.632;2023-05-25T11:47:07;100872.72;;;23.49;48.91
34237;BME280;20501;45.956;13.632;2023-05-25T11:49:40;100866.06;;;23.71;47.63
34237;BME280;20501;45.956;13.632;2023-05-25T11:52:06;100862.16;;;23.46;48.40
34237;BME280;20501;45.956;13.632;2023-05-25T11:54:33;100862.91;;;23.01;50.62
34237;BME280;20501;45.956;13.632;2023-05-25T11:56:58;100852.88;;;23.34;48.58
34237;BME280;20501;45.956;13.632;2023-05-25T11:59:25;100841.81;;;22.62;52.11
34237;BME280;20501;45.956;13.632;2023-05-25T12:01:55;100848.59;;;22.46;52.28
34237;BME280;20501;45.956;13.632;2023-05-25T12:04:21;100844.50;;;23.54;48.39
34237;BME280;20501;45.956;13.632;2023-05-25T12:06:46;100846.34;;;24.06;46.53
34237;BME280;20501;45.956;13.632;2023-05-25T12:09:18;100836.09;;;24.13;45.69
34237;BME280;20501;45.956;13.632;2023-05-25T12:11:44;100848.03;;;24.07;47.02
34237;BME280;20501;45.956;13.632;2023-05-25T12:14:10;100844.59;;;24.11;46.39
34237;BME280;20501;45.956;13.632;2023-05-25T12:16:36;100848.38;;;24.17;46.16
34237;BME280;20501;45.956;13.632;2023-05-25T12:19:11;100848.97;;;23.87;45.92
34237;BME280;20501;45.956;13.632;2023-05-25T12:21:38;100842.56;;;24.00;45.95
34237;BME280;20501;45.956;13.632;2023-05-25T12:24:05;100829.63;;;23.55;47.10
34237;BME280;20501;45.956;13.632;2023-05-25T12:26:31;100833.78;;;23.71;47.02
34237;BME280;20501;45.956;13.632;2023-05-25T12:29:04;100823.25;;;24.00;45.96
34237;BME280;20501;45.956;13.632;2023-05-25T12:31:32;100827.84;;;23.36;48.36
34237;BME280;20501;45.956;13.632;2023-05-25T12:34:11;100824.69;;;23.32;49.44
34237;BME280;20501;45.956;13.632;2023-05-25T12:36:50;100821.22;;;23.43;48.42
34237;BME280;20501;45.956;13.632;2023-05-25T12:39:36;100819.72;;;23.86;47.31
34237;BME280;20501;45.956;13.632;2023-05-25T12:42:04;100811.31;;;24.32;45.63
34237;BME280;20501;45.956;13.632;2023-05-25T12:44:31;100805.84;;;24.25;45.66
34237;BME280;20501;45.956;13.632;2023-05-25T12:49:51;100804.50;;;22.72;49.71
34237;BME280;20501;45.956;13.632;2023-05-25T12:54:57;100801.94;;;23.75;46.68
34237;BME280;20501;45.956;13.632;2023-05-25T12:57:33;100797.13;;;24.03;47.23
34237;BME280;20501;45.956;13.632;2023-05-25T13:00:02;100802.63;;;24.03;47.49
34237;BME280;20501;45.956;13.632;2023-05-25T13:02:27;100793.69;;;24.07;46.57